createdAt,value
2022-11-20T00:00:26.532Z,-2.10
2022-11-20T00:02:29.019Z,-2.10
2022-11-20T00:04:31.465Z,-2.10
2022-11-20T00:06:33.935Z,-2.20
2022-11-20T00:08:36.656Z,-2.20
2022-11-20T00:10:42.667Z,-2.20
2022-11-20T00:12:45.162Z,-2.20
2022-11-20T00:14:47.599Z,-2.30
2022-11-20T00:16:50.097Z,-2.30
2022-11-20T00:18:53.059Z,-2.40
2022-11-20T00:20:57.316Z,-2.40
2022-11-20T00:22:59.792Z,-2.50
2022-11-20T00:25:02.373Z,-2.40
2022-11-20T00:27:04.834Z,-2.40
2022-11-20T00:29:10.135Z,-2.30
2022-11-20T00:31:13.629Z,-2.30
2022-11-20T00:33:16.132Z,-2.30
2022-11-20T00:35:18.598Z,-2.30
2022-11-20T00:37:21.083Z,-2.20
2022-11-20T00:39:24.075Z,-2.20
2022-11-20T00:41:26.993Z,-2.30
2022-11-20T00:43:29.744Z,-2.30
2022-11-20T00:45:32.273Z,-2.30
2022-11-20T00:47:34.732Z,-2.30
2022-11-20T00:49:37.221Z,-2.30
2022-11-20T00:51:39.706Z,-2.40
2022-11-20T00:53:42.288Z,-2.40
2022-11-20T00:55:46.600Z,-2.40
2022-11-20T00:57:49.067Z,-2.40
2022-11-20T00:59:51.549Z,-2.40
2022-11-20T01:01:54.107Z,-2.30
2022-11-20T01:03:57.422Z,-2.30
2022-11-20T01:06:01.201Z,-2.40
2022-11-20T01:08:03.697Z,-2.40
2022-11-20T01:10:07.457Z,-2.40
2022-11-20T01:12:09.906Z,-2.50
2022-11-20T01:14:13.524Z,-2.50
2022-11-20T01:16:16.864Z,-2.60
2022-11-20T01:18:19.428Z,-2.50
2022-11-20T01:20:21.953Z,-2.50
2022-11-20T01:22:24.409Z,-2.50
2022-11-20T01:24:26.902Z,-2.40
2022-11-20T01:26:30.393Z,-2.80
2022-11-20T01:28:33.540Z,-2.50
2022-11-20T01:30:36.182Z,-2.50
2022-11-20T01:32:38.646Z,-2.40
2022-11-20T01:34:41.105Z,-2.40
2022-11-20T01:36:44.068Z,-2.40
2022-11-20T01:38:46.748Z,-2.40
2022-11-20T01:40:55.781Z,-1.50
2022-11-20T01:43:19.591Z,-2.30
2022-11-20T01:45:39.637Z,-2.30
2022-11-20T01:47:44.162Z,-2.30
2022-11-20T01:49:48.576Z,-2.30
2022-11-20T01:51:52.841Z,-2.30
2022-11-20T01:53:57.032Z,-2.20
2022-11-20T01:56:01.133Z,-2.20
2022-11-20T01:58:04.521Z,-2.10
2022-11-20T02:00:08.956Z,-2.10
2022-11-20T02:02:13.564Z,-2.10
2022-11-20T02:04:16.352Z,-2.20
2022-11-20T02:06:20.839Z,-2.20
2022-11-20T02:08:24.293Z,-2.20
2022-11-20T02:10:27.947Z,-2.20
2022-11-20T02:12:48.640Z,-2.20
2022-11-20T02:14:51.100Z,-2.20
2022-11-20T02:16:54.974Z,-2.20
2022-11-20T02:18:58.185Z,-2.10
2022-11-20T02:21:02.448Z,-2.10
2022-11-20T02:23:06.800Z,-2.10
2022-11-20T02:25:10.423Z,-2.00
2022-11-20T02:27:13.724Z,-2.10
2022-11-20T02:29:17.863Z,-2.00
2022-11-20T02:31:20.673Z,-2.00
2022-11-20T02:33:23.169Z,-1.90
2022-11-20T02:35:42.426Z,-1.90
2022-11-20T02:37:45.596Z,-2.10
2022-11-20T02:39:49.881Z,-2.00
2022-11-20T02:41:52.942Z,-1.90
2022-11-20T02:43:55.383Z,-1.90
2022-11-20T02:45:57.887Z,-1.80
2022-11-20T02:48:00.767Z,-1.70
2022-11-20T02:50:03.964Z,-1.70
2022-11-20T02:52:06.483Z,-1.70
2022-11-20T02:54:08.979Z,-1.60
2022-11-20T02:56:11.428Z,-1.60
2022-11-20T02:58:14.055Z,-1.70
2022-11-20T03:00:17.019Z,-1.60
2022-11-20T03:02:20.224Z,-1.60
2022-11-20T03:04:22.679Z,-1.60
2022-11-20T03:06:25.148Z,-1.60
2022-11-20T03:08:27.649Z,-1.50
2022-11-20T03:10:30.163Z,-1.60
2022-11-20T03:12:32.644Z,-1.60
2022-11-20T03:14:35.203Z,-1.60
2022-11-20T03:16:37.715Z,-1.60
2022-11-20T03:18:40.304Z,-1.60
2022-11-20T03:20:42.785Z,-1.70
2022-11-20T03:22:45.260Z,-1.70
2022-11-20T03:24:47.952Z,-1.60
2022-11-20T03:26:50.711Z,-1.60
2022-11-20T03:28:53.905Z,-1.80
2022-11-20T03:30:56.416Z,-1.80
2022-11-20T03:32:58.869Z,-1.70
2022-11-20T03:35:01.358Z,-1.70
2022-11-20T03:37:03.826Z,-1.70
2022-11-20T03:39:06.592Z,-1.60
2022-11-20T03:41:10.184Z,-1.60
2022-11-20T03:43:12.646Z,-1.70
2022-11-20T03:45:15.773Z,-1.60
2022-11-20T03:47:18.264Z,-1.50
2022-11-20T03:49:20.955Z,-1.50
2022-11-20T03:51:24.532Z,-1.50
2022-11-20T03:53:27.096Z,-1.50
2022-11-20T03:55:29.580Z,-1.50
2022-11-20T03:57:32.172Z,-1.40
2022-11-20T03:59:34.752Z,-1.40
2022-11-20T04:01:37.689Z,-1.50
2022-11-20T04:03:40.848Z,-1.40
2022-11-20T04:05:43.324Z,-1.40
2022-11-20T04:07:45.792Z,-1.30
2022-11-20T04:09:48.657Z,-1.40
2022-11-20T04:11:51.223Z,-1.50
2022-11-20T04:13:54.601Z,-1.40
2022-11-20T04:15:58.573Z,-1.30
2022-11-20T04:18:01.131Z,-1.40
2022-11-20T04:20:04.163Z,-1.30
2022-11-20T04:22:06.616Z,-1.40
2022-11-20T04:24:10.665Z,-1.40
2022-11-20T04:26:13.601Z,-1.30
2022-11-20T04:28:16.053Z,-1.40
2022-11-20T04:30:18.839Z,-1.40
2022-11-20T04:32:21.276Z,-1.30
2022-11-20T04:34:23.768Z,-1.40
2022-11-20T04:36:26.738Z,-1.40
2022-11-20T04:38:29.359Z,-1.50
2022-11-20T04:40:31.847Z,-1.50
2022-11-20T04:42:34.296Z,-1.40
2022-11-20T04:44:36.776Z,-1.40
2022-11-20T04:46:40.466Z,-1.40
2022-11-20T04:48:43.436Z,-1.50
2022-11-20T04:50:45.998Z,-1.40
2022-11-20T04:52:48.481Z,-1.40
2022-11-20T04:54:53.199Z,-1.30
2022-11-20T04:56:55.668Z,-1.30
2022-11-20T04:59:01.491Z,-1.20
2022-11-20T05:01:04.979Z,-1.20
2022-11-20T05:03:07.748Z,-1.20
2022-11-20T05:05:10.221Z,-1.20
2022-11-20T05:07:12.831Z,-1.20
2022-11-20T05:09:15.358Z,-1.20
2022-11-20T05:11:19.151Z,-1.10
2022-11-20T05:13:21.685Z,-1.10
2022-11-20T05:15:24.135Z,-1.00
2022-11-20T05:17:27.013Z,-1.10
2022-11-20T05:19:29.741Z,-1.10
2022-11-20T05:21:32.382Z,-1.00
2022-11-20T05:23:35.169Z,-1.00
2022-11-20T05:25:37.891Z,-0.90
2022-11-20T05:27:40.341Z,-1.00
2022-11-20T05:29:42.820Z,-1.10
2022-11-20T05:31:45.461Z,-1.10
2022-11-20T05:33:48.220Z,-1.20
2022-11-20T05:35:50.690Z,-1.10
2022-11-20T05:37:53.241Z,-1.10
2022-11-20T05:39:55.717Z,-1.20
2022-11-20T05:42:17.980Z,-1.10
2022-11-20T05:44:33.861Z,-1.10
2022-11-20T05:46:38.299Z,-1.10
2022-11-20T05:48:43.892Z,-1.00
2022-11-20T05:50:46.765Z,-1.10
2022-11-20T05:52:49.245Z,-1.10
2022-11-20T05:54:51.817Z,-1.10
2022-11-20T05:56:54.765Z,-1.00
2022-11-20T05:58:57.476Z,-0.90
2022-11-20T06:01:05.160Z,-0.90
2022-11-20T06:03:07.727Z,-0.90
2022-11-20T06:05:10.201Z,-0.90
2022-11-20T06:07:12.842Z,-0.90
2022-11-20T06:09:15.609Z,-0.80
2022-11-20T06:11:18.521Z,-0.80
2022-11-20T06:13:21.018Z,-0.80
2022-11-20T06:15:23.541Z,-0.70
2022-11-20T06:17:25.993Z,-0.70
2022-11-20T06:19:28.463Z,-0.70
2022-11-20T06:21:31.030Z,-0.70
2022-11-20T06:23:34.192Z,-0.80
2022-11-20T06:25:38.725Z,-0.80
2022-11-20T06:27:41.588Z,-0.70
2022-11-20T06:29:44.030Z,-0.80
2022-11-20T06:31:46.510Z,-0.90
2022-11-20T06:33:49.369Z,-0.90
2022-11-20T06:35:56.882Z,-0.80
2022-11-20T06:37:57.205Z,-0.80
2022-11-20T06:39:59.994Z,-0.80
2022-11-20T06:42:02.440Z,-0.80
2022-11-20T06:44:05.368Z,-0.60
2022-11-20T06:46:08.023Z,-0.70
2022-11-20T06:48:10.518Z,-0.60
2022-11-20T06:50:13.092Z,-0.60
2022-11-20T06:52:15.884Z,-0.70
2022-11-20T06:54:18.370Z,-0.60
2022-11-20T06:56:20.814Z,-0.70
2022-11-20T06:58:23.577Z,-0.60
2022-11-20T07:00:26.032Z,-0.70
2022-11-20T07:02:28.603Z,-0.80
2022-11-20T07:04:31.180Z,-0.70
2022-11-20T07:06:33.641Z,-0.70
2022-11-20T07:08:36.199Z,-0.70
2022-11-20T07:10:38.955Z,-0.70
2022-11-20T07:12:41.536Z,-0.70
2022-11-20T07:14:43.995Z,-0.70
2022-11-20T07:16:46.484Z,-0.70
2022-11-20T07:18:50.886Z,-0.70
2022-11-20T07:20:53.221Z,-0.70
2022-11-20T07:22:55.933Z,-0.70
2022-11-20T07:24:58.444Z,-0.70
2022-11-20T07:27:00.905Z,-0.70
2022-11-20T07:29:03.941Z,-0.70
2022-11-20T07:31:07.058Z,-0.70
2022-11-20T07:33:09.501Z,-0.70
2022-11-20T07:35:12.005Z,-0.80
2022-11-20T07:37:14.493Z,-0.80
2022-11-20T07:39:16.968Z,-0.70
2022-11-20T07:41:19.447Z,-0.80
2022-11-20T07:43:21.899Z,-0.70
2022-11-20T07:45:24.934Z,-0.70
2022-11-20T07:47:27.412Z,-0.60
2022-11-20T07:49:30.004Z,-0.60
2022-11-20T07:51:32.514Z,-0.70
2022-11-20T07:53:37.219Z,-0.60
2022-11-20T07:55:39.696Z,-0.50
2022-11-20T07:57:42.353Z,-0.50
2022-11-20T07:59:46.460Z,-0.30
2022-11-20T08:01:49.205Z,-0.30
2022-11-20T08:03:52.738Z,-0.30
2022-11-20T08:05:55.236Z,-0.20
2022-11-20T08:07:57.693Z,-0.20
2022-11-20T08:10:00.347Z,-0.20
2022-11-20T08:12:21.229Z,0.00
2022-11-20T08:14:23.745Z,0.00
2022-11-20T08:16:26.217Z,0.10
2022-11-20T08:18:31.712Z,0.10
2022-11-20T08:20:33.578Z,0.20
2022-11-20T08:22:36.301Z,0.30
2022-11-20T08:24:38.793Z,0.30
2022-11-20T08:26:41.425Z,0.40
2022-11-20T08:28:44.442Z,0.40
2022-11-20T08:30:46.921Z,0.40
2022-11-20T08:32:49.414Z,0.40
2022-11-20T08:34:52.929Z,0.40
2022-11-20T08:36:55.525Z,0.30
2022-11-20T08:38:58.114Z,0.20
2022-11-20T08:41:18.669Z,0.20
2022-11-20T08:43:21.169Z,0.20
2022-11-20T08:45:23.629Z,0.10
2022-11-20T08:47:26.130Z,0.10
2022-11-20T08:49:28.767Z,0.10
2022-11-20T08:51:31.437Z,0.20
2022-11-20T08:53:34.225Z,0.20
2022-11-20T08:55:37.377Z,0.20
2022-11-20T08:57:39.881Z,0.20
2022-11-20T09:00:05.142Z,0.30
2022-11-20T09:01:46.896Z,0.30
2022-11-20T09:03:49.701Z,0.30
2022-11-20T09:05:52.406Z,0.40
2022-11-20T09:07:57.383Z,0.40
2022-11-20T09:10:22.711Z,0.40
2022-11-20T09:12:04.549Z,0.40
2022-11-20T09:14:07.126Z,0.40
2022-11-20T09:16:09.840Z,0.50
2022-11-20T09:18:12.300Z,0.50
2022-11-20T09:20:15.412Z,0.50
2022-11-20T09:22:17.855Z,0.60
2022-11-20T09:24:20.993Z,0.70
2022-11-20T09:26:23.663Z,0.70
2022-11-20T09:28:26.101Z,0.80
2022-11-20T09:30:28.613Z,1.00
2022-11-20T09:32:31.181Z,1.10
2022-11-20T09:34:33.700Z,1.00
2022-11-20T09:36:36.697Z,1.10
2022-11-20T09:38:39.314Z,1.20
2022-11-20T09:40:43.899Z,1.20
2022-11-20T09:42:48.217Z,1.30
2022-11-20T09:44:53.715Z,1.40
2022-11-20T09:46:58.320Z,1.50
2022-11-20T09:49:05.509Z,1.50
2022-11-20T09:51:09.771Z,1.70
2022-11-20T09:53:14.510Z,1.80
2022-11-20T09:55:17.200Z,2.00
2022-11-20T09:57:21.200Z,2.20
2022-11-20T09:59:37.168Z,2.30
2022-11-20T10:01:41.216Z,2.40
2022-11-20T10:03:48.393Z,2.60
2022-11-20T10:05:53.184Z,2.80
2022-11-20T10:07:58.195Z,2.90
2022-11-20T10:10:01.177Z,3.20
2022-11-20T10:12:08.520Z,3.70
2022-11-20T10:14:14.481Z,3.90
2022-11-20T10:16:20.665Z,4.10
2022-11-20T10:18:26.879Z,4.20
2022-11-20T10:20:31.480Z,4.40
2022-11-20T10:22:38.636Z,4.50
2022-11-20T10:24:46.978Z,4.60
2022-11-20T10:26:51.244Z,4.80
2022-11-20T10:29:03.478Z,4.60
2022-11-20T10:31:06.788Z,4.50
2022-11-20T10:33:12.410Z,4.50
2022-11-20T10:35:20.244Z,4.40
2022-11-20T10:37:24.280Z,4.40
2022-11-20T10:39:30.515Z,4.50
2022-11-20T10:41:37.048Z,4.60
2022-11-20T10:43:39.353Z,4.80
2022-11-20T10:45:50.852Z,4.90
2022-11-20T10:47:54.241Z,4.90
2022-11-20T10:49:58.632Z,5.00
2022-11-20T10:52:02.999Z,5.00
2022-11-20T10:54:13.367Z,5.10
2022-11-20T10:56:20.006Z,5.10
2022-11-20T10:58:25.052Z,5.20
2022-11-20T11:00:27.582Z,5.30
2022-11-20T11:02:35.461Z,5.90
2022-11-20T11:04:39.855Z,5.20
2022-11-20T11:06:44.171Z,5.20
2022-11-20T11:11:05.168Z,5.10
2022-11-20T11:13:08.233Z,5.00
2022-11-20T11:15:13.915Z,4.90
2022-11-20T11:17:24.220Z,4.70
2022-11-20T11:19:26.692Z,4.60
2022-11-20T11:21:29.196Z,4.60
2022-11-20T11:23:33.064Z,4.70
2022-11-20T11:25:36.676Z,4.60
2022-11-20T11:27:47.537Z,4.60
2022-11-20T11:29:50.148Z,4.60
2022-11-20T11:31:54.425Z,4.50
2022-11-20T11:34:05.330Z,4.40
2022-11-20T11:36:17.948Z,4.30
2022-11-20T11:38:22.715Z,4.40
2022-11-20T11:40:27.228Z,4.30
2022-11-20T11:42:30.050Z,4.30
2022-11-20T11:44:52.438Z,4.20
2022-11-20T11:46:55.613Z,4.10
2022-11-20T11:48:59.174Z,4.00
2022-11-20T11:51:01.817Z,3.90
2022-11-20T11:53:09.068Z,3.80
2022-11-20T11:55:13.381Z,3.80
2022-11-20T11:57:17.904Z,3.70
2022-11-20T11:59:25.210Z,3.70
2022-11-20T12:01:31.036Z,3.60
2022-11-20T12:03:36.376Z,3.60
2022-11-20T12:05:40.219Z,3.60
2022-11-20T12:07:47.706Z,3.60
2022-11-20T12:09:49.448Z,3.60
2022-11-20T12:11:53.881Z,3.70
2022-11-20T12:14:00.858Z,3.70
2022-11-20T12:16:04.029Z,3.80
2022-11-20T12:18:09.657Z,3.80
2022-11-20T12:20:14.120Z,3.70
2022-11-20T12:22:20.162Z,3.80
2022-11-20T12:24:28.222Z,3.70
2022-11-20T12:26:35.136Z,3.70
2022-11-20T12:28:48.045Z,3.70
2022-11-20T12:30:52.809Z,3.70
2022-11-20T12:33:08.126Z,3.70
2022-11-20T12:35:13.825Z,3.70
2022-11-20T12:37:20.096Z,3.70
2022-11-20T12:39:34.796Z,3.70
2022-11-20T12:42:04.653Z,3.70
2022-11-20T12:44:31.569Z,3.80
2022-11-20T12:48:55.505Z,3.80
2022-11-20T12:51:15.233Z,3.80
2022-11-20T12:53:08.068Z,3.80
2022-11-20T12:55:17.313Z,3.80
2022-11-20T12:57:21.952Z,3.90
2022-11-20T12:59:31.545Z,3.90
2022-11-20T13:01:42.875Z,3.80
2022-11-20T13:03:47.472Z,3.80
2022-11-20T13:05:54.426Z,3.80
2022-11-20T13:07:57.488Z,3.90
2022-11-20T13:10:00.826Z,3.90
2022-11-20T13:12:05.142Z,3.90
2022-11-20T13:14:20.699Z,3.90
2022-11-20T13:16:25.978Z,3.80
2022-11-20T13:18:29.280Z,3.80
2022-11-20T13:20:33.598Z,3.80
2022-11-20T13:22:44.422Z,3.80
2022-11-20T13:24:48.705Z,3.80
2022-11-20T13:27:01.303Z,3.80
2022-11-20T13:29:06.485Z,3.80
2022-11-20T13:31:12.929Z,3.80
2022-11-20T13:33:23.900Z,3.80
2022-11-20T13:35:27.973Z,3.80
2022-11-20T13:37:31.943Z,3.80
2022-11-20T13:39:34.947Z,3.80
2022-11-20T13:41:38.298Z,3.80
2022-11-20T13:43:42.319Z,3.70
2022-11-20T13:45:46.713Z,3.70
2022-11-20T13:47:49.769Z,3.70
2022-11-20T13:49:52.781Z,3.70
2022-11-20T13:51:58.752Z,3.70
2022-11-20T13:54:05.405Z,3.70
2022-11-20T13:56:09.941Z,4.20
2022-11-20T13:58:25.173Z,3.60
2022-11-20T14:00:27.947Z,3.50
2022-11-20T14:02:30.756Z,3.40
2022-11-20T14:04:35.017Z,3.40
2022-11-20T14:06:42.079Z,3.30
2022-11-20T14:08:46.526Z,3.30
2022-11-20T14:10:49.021Z,3.20
2022-11-20T14:12:51.619Z,3.20
2022-11-20T14:14:54.921Z,3.20
2022-11-20T14:17:06.427Z,3.10
2022-11-20T14:19:37.604Z,3.10
2022-11-20T14:21:40.057Z,3.10
2022-11-20T14:23:42.569Z,3.10
2022-11-20T14:25:45.898Z,3.10
2022-11-20T14:27:50.172Z,3.10
2022-11-20T14:29:53.089Z,3.00
2022-11-20T14:31:56.405Z,3.10
2022-11-20T14:33:58.913Z,3.00
2022-11-20T14:36:01.548Z,3.00
2022-11-20T14:38:04.474Z,3.10
2022-11-20T14:40:17.078Z,3.00
2022-11-20T14:42:20.809Z,3.10
2022-11-20T14:44:25.549Z,3.00
2022-11-20T14:46:28.621Z,3.00
2022-11-20T14:48:33.206Z,3.00
2022-11-20T14:52:52.889Z,3.00
2022-11-20T14:54:56.691Z,2.90
2022-11-20T14:57:00.139Z,3.00
2022-11-20T14:59:02.606Z,3.00
2022-11-20T15:01:06.008Z,3.00
2022-11-20T15:03:15.833Z,2.90
2022-11-20T15:05:19.287Z,2.90
2022-11-20T15:07:25.642Z,2.90
2022-11-20T15:09:28.097Z,2.80
2022-11-20T15:11:31.437Z,2.80
2022-11-20T15:13:35.588Z,2.80
2022-11-20T15:15:39.890Z,2.80
2022-11-20T15:17:42.524Z,2.80
2022-11-20T15:19:45.010Z,2.80
2022-11-20T15:21:47.819Z,2.80
2022-11-20T15:23:50.315Z,2.80
2022-11-20T15:25:52.778Z,2.80
2022-11-20T15:27:56.405Z,2.80
2022-11-20T15:29:58.892Z,2.80
2022-11-20T15:32:01.380Z,2.80
2022-11-20T15:34:03.881Z,2.80
2022-11-20T15:36:06.449Z,2.80
2022-11-20T15:38:09.013Z,2.80
2022-11-20T15:40:12.208Z,2.80
2022-11-20T15:42:14.689Z,2.90
2022-11-20T15:44:17.421Z,3.90
2022-11-20T15:46:21.692Z,2.90
2022-11-20T15:48:26.136Z,2.90
2022-11-20T15:50:30.514Z,2.90
2022-11-20T15:52:40.429Z,2.90
2022-11-20T15:54:37.281Z,2.90
2022-11-20T15:56:39.885Z,2.90
2022-11-20T15:58:42.396Z,2.90
2022-11-20T16:00:45.326Z,2.90
2022-11-20T16:02:47.804Z,2.90
2022-11-20T16:04:50.316Z,3.00
2022-11-20T16:06:52.777Z,3.00
2022-11-20T16:08:55.301Z,2.90
2022-11-20T16:10:57.782Z,3.00
2022-11-20T16:13:37.557Z,3.00
2022-11-20T16:17:56.290Z,2.90
2022-11-20T16:19:58.769Z,2.90
2022-11-20T16:22:03.167Z,2.90
2022-11-20T16:24:06.778Z,2.90
2022-11-20T16:26:12.588Z,2.90
2022-11-20T16:28:18.877Z,2.90
2022-11-20T16:30:19.892Z,2.80
2022-11-20T16:32:22.404Z,2.80
2022-11-20T16:34:25.296Z,2.80
2022-11-20T16:36:28.884Z,2.80
2022-11-20T16:38:31.371Z,2.80
2022-11-20T16:40:33.845Z,4.10
2022-11-20T16:42:37.060Z,2.80
2022-11-20T16:44:39.545Z,2.70
2022-11-20T16:46:42.066Z,2.70
2022-11-20T16:48:44.558Z,2.60
2022-11-20T16:50:48.791Z,2.60
2022-11-20T16:52:51.261Z,2.60
2022-11-20T16:54:53.769Z,2.70
2022-11-20T16:56:56.285Z,2.60
2022-11-20T16:58:59.858Z,2.60
2022-11-20T17:01:05.947Z,2.70
2022-11-20T17:03:08.623Z,2.70
2022-11-20T17:05:11.105Z,2.70
2022-11-20T17:07:13.655Z,2.70
2022-11-20T17:09:16.602Z,2.60
2022-11-20T17:11:19.454Z,2.70
2022-11-20T17:13:21.985Z,2.70
2022-11-20T17:15:24.564Z,2.70
2022-11-20T17:17:27.020Z,2.70
2022-11-20T17:19:29.534Z,2.70
2022-11-20T17:21:32.335Z,2.70
2022-11-20T17:23:35.901Z,2.70
2022-11-20T17:25:38.388Z,2.70
2022-11-20T17:27:40.944Z,2.70
2022-11-20T17:29:43.628Z,2.70
2022-11-20T17:31:46.897Z,2.70
2022-11-20T17:33:49.410Z,2.70
2022-11-20T17:35:51.947Z,2.70
2022-11-20T17:37:54.493Z,2.70
2022-11-20T17:39:57.032Z,2.70
2022-11-20T17:42:19.087Z,2.60
2022-11-20T17:44:21.777Z,2.60
2022-11-20T17:46:25.286Z,2.60
2022-11-20T17:48:29.636Z,2.60
2022-11-20T17:52:49.377Z,2.60
2022-11-20T17:54:54.280Z,3.60
2022-11-20T17:57:14.657Z,3.10
2022-11-20T17:59:18.430Z,3.30
2022-11-20T18:01:20.997Z,2.60
2022-11-20T18:03:26.167Z,2.60
2022-11-20T18:15:41.603Z,2.00
2022-11-20T18:23:09.656Z,2.20
2022-11-20T18:28:13.488Z,4.80
2022-11-20T18:30:18.474Z,3.40
2022-11-20T18:32:22.081Z,3.00
2022-11-20T18:34:25.391Z,3.00
2022-11-20T18:36:29.587Z,0.10
2022-11-20T18:38:32.115Z,2.70
2022-11-20T18:40:37.633Z,2.80
2022-11-20T18:42:58.241Z,2.80
2022-11-20T18:45:01.659Z,2.90
2022-11-20T18:47:13.768Z,3.10
2022-11-20T18:49:09.473Z,2.80
2022-11-20T18:51:13.886Z,2.80
2022-11-20T18:53:16.531Z,2.80
2022-11-20T18:55:19.342Z,2.90
2022-11-20T18:57:23.286Z,1.00
2022-11-20T18:59:28.325Z,2.90
2022-11-20T19:01:31.114Z,3.70
2022-11-20T19:03:34.115Z,3.40
2022-11-20T19:05:37.961Z,3.30
2022-11-20T19:07:41.126Z,3.80
2022-11-20T19:09:44.602Z,0.30
2022-11-20T19:11:47.244Z,1.10
2022-11-20T19:13:50.726Z,4.00
2022-11-20T19:15:53.325Z,2.20
2022-11-20T19:17:57.081Z,3.50
2022-11-20T19:20:00.353Z,3.00
2022-11-20T19:22:03.521Z,3.00
2022-11-20T19:24:06.314Z,3.00
2022-11-20T19:26:09.823Z,3.00
2022-11-20T19:28:12.347Z,3.00
2022-11-20T19:30:15.378Z,3.00
2022-11-20T19:32:17.911Z,3.00
2022-11-20T19:34:20.443Z,3.00
2022-11-20T19:36:23.818Z,2.60
2022-11-20T19:38:26.382Z,3.00
2022-11-20T19:40:28.965Z,3.00
2022-11-20T19:42:31.533Z,3.00
2022-11-20T19:44:34.028Z,3.00
2022-11-20T19:46:37.119Z,3.00
2022-11-20T19:48:40.097Z,3.10
2022-11-20T19:52:59.325Z,3.10
2022-11-20T19:55:01.947Z,3.20
2022-11-20T19:57:04.745Z,3.70
2022-11-20T19:59:07.295Z,1.90
2022-11-20T20:01:10.492Z,3.10
2022-11-20T20:03:13.189Z,3.10
2022-11-20T20:05:16.052Z,3.20
2022-11-20T20:07:18.657Z,2.70
2022-11-20T20:09:23.142Z,1.90
2022-11-20T20:11:26.599Z,3.40
2022-11-20T20:13:29.287Z,1.70
2022-11-20T20:15:32.183Z,3.00
2022-11-20T20:17:34.768Z,3.40
2022-11-20T20:19:37.412Z,4.00
2022-11-20T20:21:40.664Z,3.00
2022-11-20T20:23:44.496Z,3.00
2022-11-20T20:25:48.180Z,2.90
2022-11-20T20:27:50.852Z,3.00
2022-11-20T20:29:54.161Z,2.90
2022-11-20T20:31:56.757Z,2.90
2022-11-20T20:33:59.565Z,2.80
2022-11-20T20:36:02.056Z,2.90
2022-11-20T20:38:04.629Z,2.90
2022-11-20T20:40:12.235Z,2.80
2022-11-20T20:42:12.836Z,2.80
2022-11-20T20:44:46.880Z,2.80
2022-11-20T20:49:10.723Z,2.90
2022-11-20T20:51:13.331Z,3.30
2022-11-20T20:53:18.139Z,5.60
2022-11-20T20:55:20.919Z,1.40
2022-11-20T20:57:24.295Z,3.10
2022-11-20T20:59:27.079Z,3.10
2022-11-20T21:01:35.009Z,4.10
2022-11-20T21:03:41.174Z,3.10
2022-11-20T21:05:50.357Z,3.40
2022-11-20T21:08:10.845Z,3.10
2022-11-20T21:10:13.341Z,3.00
2022-11-20T21:12:15.926Z,2.80
2022-11-20T21:14:18.605Z,2.80
2022-11-20T21:16:21.845Z,2.80
2022-11-20T21:18:24.688Z,2.80
2022-11-20T21:20:45.392Z,2.80
2022-11-20T21:22:47.933Z,2.90
2022-11-20T21:24:50.466Z,2.90
2022-11-20T21:26:52.958Z,2.80
2022-11-20T21:28:56.193Z,2.80
2022-11-20T21:31:06.021Z,2.80
2022-11-20T21:33:08.533Z,2.90
2022-11-20T21:35:11.029Z,3.00
2022-11-20T21:37:13.501Z,2.90
2022-11-20T21:39:16.429Z,2.90
2022-11-20T21:41:19.009Z,2.80
2022-11-20T21:43:21.528Z,2.90
2022-11-20T21:45:24.082Z,2.90
2022-11-20T21:47:26.563Z,2.90
2022-11-20T21:49:29.127Z,3.00
2022-11-20T21:51:32.489Z,3.00
2022-11-20T21:53:35.177Z,3.00
2022-11-20T21:55:37.761Z,3.00
2022-11-20T21:57:40.228Z,3.00
2022-11-20T21:59:42.738Z,3.00
2022-11-20T22:01:45.324Z,3.00
2022-11-20T22:03:48.134Z,3.00
2022-11-20T22:05:54.273Z,3.00
2022-11-20T22:07:56.817Z,3.00
2022-11-20T22:09:59.300Z,3.00
2022-11-20T22:12:01.760Z,3.00
2022-11-20T22:14:23.338Z,2.90
2022-11-20T22:16:26.514Z,2.90
2022-11-20T22:18:29.013Z,3.00
2022-11-20T22:20:31.521Z,2.90
2022-11-20T22:22:34.025Z,3.00
2022-11-20T22:24:36.525Z,3.00
2022-11-20T22:26:40.623Z,2.90
2022-11-20T22:28:45.253Z,2.90
2022-11-20T22:30:47.794Z,2.90
2022-11-20T22:32:50.453Z,2.90
2022-11-20T22:34:52.983Z,2.90
2022-11-20T22:36:55.472Z,2.90
2022-11-20T22:38:58.250Z,2.80
2022-11-20T22:41:04.130Z,2.90
2022-11-20T22:43:06.630Z,2.90
2022-11-20T22:45:10.320Z,2.80
2022-11-20T22:47:12.968Z,2.80
2022-11-20T22:49:15.434Z,2.80
2022-11-20T22:51:19.458Z,2.80
2022-11-20T22:53:21.962Z,2.80
2022-11-20T22:55:24.450Z,2.70
2022-11-20T22:57:26.978Z,2.80
2022-11-20T22:59:29.503Z,2.80
2022-11-20T23:01:33.803Z,2.70
2022-11-20T23:03:36.552Z,2.70
2022-11-20T23:05:39.002Z,2.70
2022-11-20T23:07:43.238Z,2.70
2022-11-20T23:09:45.814Z,2.60
2022-11-20T23:11:48.280Z,2.60
2022-11-20T23:13:53.008Z,2.60
2022-11-20T23:15:57.296Z,2.60
2022-11-20T23:17:59.800Z,2.60
2022-11-20T23:20:02.304Z,2.50
2022-11-20T23:22:04.827Z,2.50
2022-11-20T23:24:08.281Z,2.60
2022-11-20T23:26:11.708Z,2.50
2022-11-20T23:28:14.292Z,2.60
2022-11-20T23:30:16.824Z,2.50
2022-11-20T23:32:19.323Z,2.50
2022-11-20T23:34:21.887Z,2.50
2022-11-20T23:36:24.362Z,2.50
2022-11-20T23:38:26.832Z,2.60
2022-11-20T23:40:29.468Z,2.50
2022-11-20T23:42:31.927Z,2.50
2022-11-20T23:44:34.425Z,2.50
2022-11-20T23:46:36.945Z,2.50
2022-11-20T23:48:39.448Z,2.50
2022-11-20T23:52:58.055Z,2.50
2022-11-20T23:55:00.665Z,2.40
2022-11-20T23:57:03.331Z,2.40
2022-11-20T23:59:06.826Z,2.40
